Time;durP1;ratioP1;P1;durP2;ratioP2;P2;SDS_P1;SDS_P2;PMS_P1;PMS_P2;Temp;Humidity;BMP_temperature;BMP_pressure;BME280_temperature;BME280_humidity;BME280_pressure;Samples;Min_cycle;Max_cycle;Signal;HPM_P1;HPM_P2
2022/09/06 12:40:22;;;;;;;2.72;1.90;;;;;;;24.62;36.60;99033.64;1608381;88;25746;-58
2022/09/06 12:42:50;;;;;;;2.70;1.52;;;;;;;24.74;36.92;99035.23;1607770;89;26833;-61
2022/09/06 12:45:20;;;;;;;5.05;2.20;;;;;;;24.87;35.95;99027.82;1615234;88;25701;-58
2022/09/06 12:47:48;;;;;;;6.08;2.10;;;;;;;24.56;36.89;99031.05;1615441;88;27460;-61
2022/09/06 12:50:23;;;;;;;4.15;2.20;;;;;;;24.89;36.17;99025.42;1615194;88;25729;-63
2022/09/06 12:52:59;;;;;;;4.17;1.87;;;;;;;25.09;35.97;99033.39;1615353;88;25621;-58
2022/09/06 12:55:32;;;;;;;3.02;2.15;;;;;;;24.96;36.10;99027.42;1615023;88;26058;-58
2022/09/06 12:58:06;;;;;;;4.90;2.10;;;;;;;24.92;36.37;99024.03;1615310;88;25492;-59
2022/09/06 13:00:51;;;;;;;6.83;2.33;;;;;;;24.81;36.13;99021.20;1615267;88;27477;-58
2022/09/06 13:03:32;;;;;;;3.22;2.10;;;;;;;24.87;36.60;99024.39;1615245;88;25499;-57
2022/09/06 13:06:03;;;;;;;4.50;2.17;;;;;;;25.25;37.31;99025.95;1615229;88;25475;-60
2022/09/06 13:08:48;;;;;;;5.12;2.20;;;;;;;25.14;36.04;99025.39;1614952;88;26151;-58
2022/09/06 13:11:26;;;;;;;4.12;2.17;;;;;;;24.79;36.97;99027.84;1615277;88;25480;-60
2022/09/06 13:13:54;;;;;;;4.70;2.10;;;;;;;24.90;36.87;99020.81;1615008;88;27415;-61
2022/09/06 13:16:24;;;;;;;3.70;1.98;;;;;;;25.17;36.29;99018.97;1615174;88;25636;-57
2022/09/06 13:18:51;;;;;;;3.60;2.20;;;;;;;25.02;36.42;98999.99;1615144;88;25478;-58
2022/09/06 13:21:32;;;;;;;4.83;2.33;;;;;;;24.95;36.96;99007.62;1615290;88;26551;-57
2022/09/06 13:24:02;;;;;;;3.80;2.20;;;;;;;25.26;36.45;99001.71;1614933;88;25627;-58
2022/09/06 13:26:37;;;;;;;5.92;2.22;;;;;;;25.16;35.96;99003.33;1615018;88;27179;-58
2022/09/06 13:29:25;;;;;;;7.08;2.20;;;;;;;25.11;36.75;98995.95;1615170;88;25657;-59
2022/09/06 13:31:54;;;;;;;2.62;1.90;;;;;;;25.05;36.63;98992.77;1615159;88;25667;-57
2022/09/06 13:34:28;;;;;;;5.05;2.27;;;;;;;25.04;36.87;98990.55;1615404;88;26162;-59
2022/09/06 13:37:08;;;;;;;3.02;2.12;;;;;;;25.00;37.09;98995.97;1615111;88;25636;-62
2022/09/06 13:39:38;;;;;;;7.00;2.02;;;;;;;24.79;36.93;98983.00;1615432;88;27443;-62
2022/09/06 13:42:12;;;;;;;;;;;;;;;24.47;37.71;98990.84;1617265;88;25877;-59
2022/09/06 13:44:39;;;;;;;3.87;2.00;;;;;;;24.11;38.18;98996.37;1571233;90;25702;-61
2022/09/06 13:47:06;;;;;;;3.75;2.15;;;;;;;23.79;38.93;99000.72;1571727;90;25984;-59
2022/09/06 13:49:33;;;;;;;5.83;2.02;;;;;;;23.67;39.29;98999.90;1571726;91;25480;-58
2022/09/06 13:52:03;;;;;;;4.87;2.05;;;;;;;23.58;39.31;99001.45;1571642;90;27468;-62
2022/09/06 13:54:31;;;;;;;4.10;2.70;;;;;;;23.35;40.37;98997.75;1572044;91;25747;-62
2022/09/06 13:56:59;;;;;;;3.87;2.08;;;;;;;23.27;40.39;98991.33;1571667;90;25686;-61
2022/09/06 13:59:26;;;;;;;4.65;2.25;;;;;;;23.19;40.39;98993.88;1598134;89;26265;-62
2022/09/06 14:02:06;;;;;;;3.85;2.15;;;;;;;23.12;40.15;98991.05;1636023;86;25916;-59
2022/09/06 14:04:34;;;;;;;3.05;1.75;;;;;;;23.15;40.83;98982.69;1622673;88;27658;-58
2022/09/06 14:07:02;;;;;;;3.47;1.95;;;;;;;22.87;40.09;98977.73;1622439;88;25772;-62
2022/09/06 14:09:30;;;;;;;5.00;2.02;;;;;;;22.60;41.04;98981.56;1638936;86;25722;-58
2022/09/06 14:11:57;;;;;;;4.30;2.42;;;;;;;22.60;40.69;98971.79;1639335;87;26125;-57
2022/09/06 14:14:24;;;;;;;3.70;2.25;;;;;;;22.63;41.41;98973.00;1639561;86;25747;-58
2022/09/06 14:16:51;;;;;;;4.15;1.98;;;;;;;22.73;41.11;98976.45;1639908;87;27347;-57
2022/09/06 14:19:18;;;;;;;4.85;2.22;;;;;;;22.63;41.08;98969.62;1636933;86;25718;-58
2022/09/06 14:21:45;;;;;;;3.08;2.10;;;;;;;22.46;41.07;98970.24;1624171;87;25820;-63
2022/09/06 14:24:12;;;;;;;3.12;2.05;;;;;;;22.17;41.66;98964.63;1624059;87;26651;-58
2022/09/06 14:26:39;;;;;;;3.15;2.17;;;;;;;22.00;42.09;98967.48;1624215;87;25793;-59
2022/09/06 14:29:07;;;;;;;2.10;1.57;;;;;;;21.95;42.52;98967.83;1604124;88;27699;-60
2022/09/06 14:31:34;;;;;;;4.95;2.50;;;;;;;21.76;42.07;98957.69;1600989;89;25712;-61
2022/09/06 14:34:02;;;;;;;5.40;2.08;;;;;;;21.66;43.49;98967.50;1602593;88;25797;-58
2022/09/06 14:36:31;;;;;;;3.37;2.20;;;;;;;21.64;42.75;98979.62;1624262;88;26080;-58
2022/09/06 14:39:00;;;;;;;3.12;2.42;;;;;;;21.64;42.98;98977.64;1606336;89;25718;-62
2022/09/06 14:41:27;;;;;;;5.33;2.70;;;;;;;21.68;42.98;98975.69;1622530;87;28254;-61
2022/09/06 14:43:56;;;;;;;4.60;2.58;;;;;;;21.66;43.33;98968.89;1606371;89;25626;-59
2022/09/06 14:46:25;;;;;;;5.53;2.37;;;;;;;21.57;42.84;98966.41;1620594;88;25523;-58
2022/09/06 14:48:59;;;;;;;6.15;2.62;;;;;;;21.52;43.53;98970.92;1606890;89;26647;-63
2022/09/06 14:51:26;;;;;;;5.45;2.35;;;;;;;21.46;43.77;98966.29;1620131;88;25712;-58
2022/09/06 14:53:57;;;;;;;4.42;2.37;;;;;;;21.35;43.86;98955.59;1620576;88;28067;-58
2022/09/06 14:56:25;;;;;;;3.98;2.60;;;;;;;21.23;44.32;98957.45;1620741;88;25520;-58
2022/09/06 14:58:56;;;;;;;6.05;2.45;;;;;;;21.26;44.52;98958.09;1593625;89;25665;-59
2022/09/06 15:01:25;;;;;;;2.83;1.80;;;;;;;21.27;44.49;98961.08;1593813;89;25496;-58
2022/09/06 15:04:01;;;;;;;3.25;2.33;;;;;;;21.21;44.57;98962.59;1606883;89;25674;-58
2022/09/06 15:06:29;;;;;;;4.28;2.37;;;;;;;21.08;44.72;98969.02;1620533;88;28302;-60
2022/09/06 15:08:55;;;;;;;2.45;2.05;;;;;;;;;;1606573;89;25988;-58
2022/09/06 15:11:33;;;;;;;4.72;2.40;;;;;;;20.96;44.73;98957.52;1620820;88;25612;-58
2022/09/06 15:14:02;;;;;;;6.95;3.10;;;;;;;20.87;45.19;98950.78;1620556;87;26042;-59
2022/09/06 15:16:31;;;;;;;2.67;2.27;;;;;;;20.86;45.24;98954.75;1606492;89;25626;-60
2022/09/06 15:18:58;;;;;;;6.58;2.67;;;;;;;20.80;45.95;98952.08;1620583;88;27415;-60
2022/09/06 15:21:25;;;;;;;5.25;2.70;;;;;;;20.72;45.71;98955.35;1620556;88;25716;-59
2022/09/06 15:23:52;;;;;;;3.65;2.40;;;;;;;20.69;46.11;98955.52;1620656;88;25671;-59
2022/09/06 15:26:19;;;;;;;4.08;2.50;;;;;;;20.68;46.18;98955.89;1620674;88;26046;-57
2022/09/06 15:28:45;;;;;;;2.65;2.45;;;;;;;20.65;46.29;98959.43;1620549;87;25709;-59
2022/09/06 15:31:13;;;;;;;3.67;2.65;;;;;;;20.66;46.31;98955.45;1606392;89;27474;-57
2022/09/06 15:33:40;;;;;;;5.55;2.45;;;;;;;20.68;46.10;98961.47;1620778;88;25531;-59
2022/09/06 15:36:09;;;;;;;4.90;2.30;;;;;;;20.65;45.87;98958.03;1606787;89;25670;-59
2022/09/06 15:38:40;;;;;;;3.72;2.67;;;;;;;20.56;46.40;98956.92;1620763;88;25994;-58
2022/09/06 15:41:13;;;;;;;3.58;2.40;;;;;;;20.52;46.36;98962.42;1594888;89;25508;-57
2022/09/06 15:43:49;;;;;;;4.83;2.50;;;;;;;20.56;46.74;98962.48;1598747;89;27384;-58
2022/09/06 15:46:14;;;;;;;6.58;2.55;;;;;;;20.59;46.70;98963.13;1623100;87;25878;-59
2022/09/06 15:48:48;;;;;;;4.85;2.67;;;;;;;20.56;46.83;98952.13;1625353;88;25605;-58
2022/09/06 15:51:18;;;;;;;4.47;2.60;;;;;;;20.53;46.93;98947.31;1606589;89;26170;-58
2022/09/06 15:53:45;;;;;;;2.85;2.50;;;;;;;20.53;47.09;98944.53;1625499;88;25550;-62
2022/09/06 15:56:15;;;;;;;5.33;2.65;;;;;;;20.48;47.21;98937.09;1598198;89;27435;-60
2022/09/06 15:58:42;;;;;;;5.97;2.67;;;;;;;20.37;46.91;98938.31;1598440;89;25783;-60
2022/09/06 16:01:13;;;;;;;6.03;2.85;;;;;;;20.27;47.27;98945.34;1606681;89;25468;-64
2022/09/06 16:03:47;;;;;;;6.17;2.60;;;;;;;20.23;47.52;98938.92;1625432;88;25988;-59
2022/09/06 16:06:21;;;;;;;5.58;2.55;;;;;;;20.27;47.87;98935.59;1606844;89;25638;-64
2022/09/06 16:08:51;;;;;;;3.70;2.75;;;;;;;20.24;47.38;98929.38;1625372;88;27478;-58
2022/09/06 16:11:18;;;;;;;5.97;2.60;;;;;;;20.21;47.66;98928.16;1606903;89;25654;-58
2022/09/06 16:13:45;;;;;;;3.87;2.52;;;;;;;20.18;47.88;98926.91;1625366;88;25552;-58
2022/09/06 16:16:15;;;;;;;3.25;2.47;;;;;;;20.20;47.75;98918.80;1625047;87;26038;-58
2022/09/06 16:18:46;;;;;;;6.57;3.10;;;;;;;20.13;47.27;98918.89;1607090;89;25510;-59
2022/09/06 16:21:27;;;;;;;4.83;3.17;;;;;;;20.03;47.70;98921.70;1625421;88;27429;-58
2022/09/06 16:23:53;;;;;;;5.58;2.70;;;;;;;19.97;47.57;98923.75;1605590;89;25852;-58
2022/09/06 16:26:22;;;;;;;4.87;2.83;;;;;;;19.93;47.69;98924.50;1625467;88;25626;-58
2022/09/06 16:28:50;;;;;;;4.85;2.60;;;;;;;19.91;47.94;98917.10;1625784;88;26249;-58
2022/09/06 16:31:18;;;;;;;6.67;2.55;;;;;;;19.86;48.10;98911.84;1625249;88;25452;-59
2022/09/06 16:33:46;;;;;;;7.37;2.90;;;;;;;19.82;48.10;98912.38;1625310;88;27354;-60
2022/09/06 16:36:13;;;;;;;7.62;3.05;;;;;;;19.80;48.29;98912.74;1625276;87;25722;-58
2022/09/06 16:38:40;;;;;;;8.90;2.90;;;;;;;19.78;48.58;98914.30;1625268;88;25512;-60
2022/09/06 16:41:24;;;;;;;4.67;3.25;;;;;;;19.73;48.74;98914.02;1624899;88;26035;-63
2022/09/06 16:43:51;;;;;;;3.92;3.00;;;;;;;19.66;48.91;98911.89;1624873;88;25709;-59
2022/09/06 16:46:20;;;;;;;6.58;3.08;;;;;;;19.61;49.24;98916.95;1597881;89;27420;-59
2022/09/06 16:48:55;;;;;;;6.12;3.22;;;;;;;19.57;49.60;98914.11;1598295;89;25814;-59
2022/09/06 16:51:25;;;;;;;6.17;2.98;;;;;;;19.51;50.12;98918.35;1602298;89;25785;-59
2022/09/06 16:53:53;;;;;;;6.73;3.17;;;;;;;19.42;50.33;98918.02;1602483;89;26630;-64
2022/09/06 16:56:23;;;;;;;11.88;3.75;;;;;;;19.35;50.35;98909.55;1602212;89;25767;-59
2022/09/06 16:58:53;;;;;;;5.10;2.92;;;;;;;19.31;51.00;98912.82;1602655;89;27465;-58
2022/09/06 17:01:20;;;;;;;7.67;3.37;;;;;;;19.27;50.77;98914.73;1602041;89;26108;-60
2022/09/06 17:03:48;;;;;;;8.73;4.62;;;;;;;19.20;51.37;98912.61;1602348;89;25691;-58
2022/09/06 17:06:15;;;;;;;9.55;6.00;;;;;;;19.12;51.56;98906.70;1602319;89;26037;-58
2022/09/06 17:08:42;;;;;;;13.25;8.73;;;;;;;19.02;51.87;98910.25;1602263;89;25700;-60
2022/09/06 17:11:13;;;;;;;19.10;11.00;;;;;;;18.96;52.02;98908.11;1602099;89;27520;-57
2022/09/06 17:13:41;;;;;;;23.12;12.47;;;;;;;18.92;51.87;98907.48;1602044;89;25743;-58
2022/09/06 17:18:53;;;;;;;18.05;10.55;;;;;;;18.80;52.66;98900.67;1601989;89;25602;-58
2022/09/06 17:21:23;;;;;;;15.98;8.93;;;;;;;18.73;52.58;98901.31;1602375;89;25602;-62
2022/09/06 17:23:51;;;;;;;8.13;4.05;;;;;;;18.66;52.85;98892.83;1602249;89;27680;-60
2022/09/06 17:26:20;;;;;;;10.53;6.40;;;;;;;18.59;52.82;98905.17;1602276;89;25639;-58
2022/09/06 17:28:49;;;;;;;6.47;4.30;;;;;;;18.54;53.14;98902.09;1602240;89;25461;-60
2022/09/06 17:31:17;;;;;;;6.55;4.58;;;;;;;18.45;53.43;98900.88;1601958;89;25975;-57
2022/09/06 17:33:49;;;;;;;5.25;3.70;;;;;;;18.34;53.73;98897.88;1602382;89;25503;-62
2022/09/06 17:36:23;;;;;;;5.90;3.65;;;;;;;18.23;53.99;98901.79;1601967;89;27362;-59
2022/09/06 17:38:52;;;;;;;6.72;3.80;;;;;;;18.13;54.30;98898.97;1603025;89;25644;-59
2022/09/06 17:41:26;;;;;;;5.85;3.67;;;;;;;18.06;54.45;98907.09;1625005;87;25630;-63
2022/09/06 17:43:54;;;;;;;7.55;3.65;;;;;;;18.00;54.40;98916.27;1625355;88;26087;-57
2022/09/06 17:46:22;;;;;;;8.35;4.55;;;;;;;17.95;54.60;98923.45;1625409;87;25690;-61
2022/09/06 17:48:49;;;;;;;9.48;4.85;;;;;;;17.89;54.72;98920.72;1625186;88;27446;-62
2022/09/06 17:51:17;;;;;;;14.23;8.23;;;;;;;17.81;54.81;98929.43;1625195;88;25959;-57
2022/09/06 17:53:45;;;;;;;15.40;8.75;;;;;;;17.77;55.30;98925.77;1625030;88;25633;-60
2022/09/06 17:56:14;;;;;;;16.52;9.83;;;;;;;17.70;55.48;98926.97;1624922;88;25617;-58
2022/09/06 17:58:41;;;;;;;9.60;6.30;;;;;;;17.64;55.57;98929.17;1625487;88;25689;-58
2022/09/06 18:01:12;;;;;;;10.10;6.20;;;;;;;17.55;55.76;98927.39;1608555;89;27500;-57
2022/09/06 18:03:40;;;;;;;13.75;7.00;;;;;;;17.53;55.52;98931.09;1625066;88;25579;-63
2022/09/06 18:06:11;;;;;;;8.50;4.05;;;;;;;17.48;55.92;98926.39;1625137;88;25612;-57
2022/09/06 18:08:40;;;;;;;13.40;4.67;;;;;;;17.40;55.84;98926.77;1624988;88;26836;-58
2022/09/06 18:11:15;;;;;;;10.80;5.78;;;;;;;17.35;55.96;98921.47;1602257;89;25508;-60
2022/09/06 18:13:43;;;;;;;10.32;5.70;;;;;;;17.28;56.45;98915.17;1603743;89;27365;-56
2022/09/06 18:16:11;;;;;;;11.28;5.30;;;;;;;17.22;56.82;98920.73;1625027;88;25512;-59
2022/09/06 18:18:37;;;;;;;8.00;4.50;;;;;;;17.18;56.50;98917.84;1597681;89;25736;-60
2022/09/06 18:21:07;;;;;;;12.07;5.05;;;;;;;17.13;56.69;98922.27;1597645;89;26527;-58
2022/09/06 18:23:35;;;;;;;7.67;4.20;;;;;;;17.10;56.61;98932.06;1602142;89;25451;-62
2022/09/06 18:26:05;;;;;;;7.37;4.33;;;;;;;17.12;56.46;98928.95;1602225;89;27597;-60
2022/09/06 18:28:35;;;;;;;8.40;4.75;;;;;;;17.09;56.86;98927.70;1602163;89;25890;-61
2022/09/06 18:31:13;;;;;;;8.23;4.58;;;;;;;17.03;57.30;98927.69;1602163;89;25667;-65
2022/09/06 18:33:43;;;;;;;9.05;4.42;;;;;;;16.95;57.39;98921.72;1599137;89;26129;-63
2022/09/06 18:36:11;;;;;;;8.15;4.08;;;;;;;16.92;57.50;98928.18;1602279;89;25479;-59
2022/09/06 18:38:41;;;;;;;9.38;3.95;;;;;;;16.88;57.55;98933.37;1602158;89;27422;-61
2022/09/06 18:41:58;;;;;;;6.95;4.00;;;;;;;16.80;58.06;98933.73;1602063;89;25471;-62
2022/09/06 18:43:39;;;;;;;9.38;3.80;;;;;;;16.72;58.33;98936.08;1599185;89;25746;-63
2022/09/06 18:46:10;;;;;;;6.60;3.65;;;;;;;16.70;58.51;98937.81;1627554;88;26583;-62
2022/09/06 18:48:38;;;;;;;5.58;3.80;;;;;;;16.68;58.62;98939.54;1626994;87;25512;-56
2022/09/06 18:51:13;;;;;;;5.92;3.75;;;;;;;16.62;58.97;98940.93;1600271;89;27464;-58
2022/09/06 18:53:45;;;;;;;6.62;3.80;;;;;;;16.58;60.10;98942.76;1600153;89;25883;-58
2022/09/06 18:56:14;;;;;;;7.60;3.62;;;;;;;16.50;59.78;98933.45;1610992;89;25661;-58
2022/09/06 18:58:41;;;;;;;5.92;3.70;;;;;;;16.43;60.49;98935.97;1627388;88;26922;-59
2022/09/06 19:01:13;;;;;;;6.97;4.10;;;;;;;16.32;60.27;98938.39;1627083;88;40834;-59
2022/09/06 19:03:41;;;;;;;7.17;4.05;;;;;;;16.24;61.02;98940.70;1611112;89;27383;-61
2022/09/06 19:06:15;;;;;;;10.15;4.00;;;;;;;16.15;60.55;98933.32;1611241;89;25481;-63
2022/09/06 19:08:42;;;;;;;8.58;4.10;;;;;;;16.09;61.67;98925.02;1611242;88;25699;-60
2022/09/06 19:11:13;;;;;;;8.15;3.75;;;;;;;16.01;60.94;98923.97;1627172;88;25953;-59
2022/09/06 19:13:40;;;;;;;9.03;3.87;;;;;;;15.98;60.89;98921.92;1611374;89;25612;-58
2022/09/06 19:16:10;;;;;;;6.37;4.00;;;;;;;16.00;60.60;98920.98;1627189;88;27410;-58
2022/09/06 19:18:37;;;;;;;8.30;4.03;;;;;;;16.01;59.95;98919.83;1627074;87;26067;-63
2022/09/06 19:21:08;;;;;;;8.88;3.62;;;;;;;16.03;59.75;98920.30;1610970;89;25730;-60
2022/09/06 19:23:37;;;;;;;6.47;3.83;;;;;;;16.06;59.54;98914.66;1627441;87;26039;-63
2022/09/06 19:26:08;;;;;;;6.22;3.65;;;;;;;16.07;59.14;98901.64;1611344;89;25653;-61
2022/09/06 19:28:37;;;;;;;6.45;3.15;;;;;;;16.09;58.85;98902.12;1627510;88;27453;-62
2022/09/06 19:31:14;;;;;;;8.83;3.42;;;;;;;16.13;58.02;98897.50;1611126;89;25769;-60
2022/09/06 19:33:42;;;;;;;6.17;3.08;;;;;;;16.16;58.21;98898.20;1627153;88;25666;-59
2022/09/06 19:36:09;;;;;;;4.97;2.92;;;;;;;16.16;57.81;98892.09;1627188;88;26146;-58
2022/09/06 19:38:36;;;;;;;6.35;3.02;;;;;;;16.18;57.43;98896.69;1627233;87;25618;-58
2022/09/06 19:41:05;;;;;;;5.62;2.80;;;;;;;16.22;57.29;98896.81;1627408;88;28467;-63
2022/09/06 19:43:32;;;;;;;6.42;3.60;;;;;;;16.21;56.68;98895.21;1625398;87;25906;-63
2022/09/06 19:46:07;;;;;;;7.12;3.20;;;;;;;16.19;56.69;98897.50;1625227;87;25464;-63
2022/09/06 19:48:36;;;;;;;4.70;2.52;;;;;;;16.17;56.72;98902.00;1625044;88;26005;-57
2022/09/06 19:51:07;;;;;;;4.25;2.87;;;;;;;16.17;56.25;98889.55;1625153;88;25693;-60
2022/09/06 19:53:36;;;;;;;5.90;3.27;;;;;;;16.15;56.14;98886.91;1602326;89;28457;-63
2022/09/06 19:56:13;;;;;;;8.43;3.00;;;;;;;16.11;56.29;98884.59;1602322;89;25682;-63
2022/09/06 19:58:42;;;;;;;4.33;2.50;;;;;;;16.10;56.31;98885.75;1603657;89;25714;-63
2022/09/06 20:01:10;;;;;;;4.10;2.90;;;;;;;16.04;55.98;98884.59;1625370;88;26190;-63
2022/09/06 20:03:40;;;;;;;7.20;3.15;;;;;;;15.99;56.12;98883.45;1598091;89;25645;-63
2022/09/06 20:06:08;;;;;;;7.42;3.37;;;;;;;15.96;55.98;98880.53;1597996;89;27425;-63
2022/09/06 20:08:37;;;;;;;5.60;3.27;;;;;;;15.95;56.00;98880.31;1602199;89;25533;-62
2022/09/06 20:11:06;;;;;;;5.17;3.17;;;;;;;15.88;55.77;98879.48;1602190;89;25545;-58
2022/09/06 20:13:36;;;;;;;5.40;3.47;;;;;;;15.86;55.91;98881.21;1602291;89;25634;-63
2022/09/06 20:16:05;;;;;;;5.70;3.40;;;;;;;15.85;55.85;98881.55;1602335;89;25452;-59
2022/09/06 20:18:32;;;;;;;6.37;3.45;;;;;;;15.80;56.08;98876.49;1602284;89;27550;-63
2022/09/06 20:20:59;;;;;;;7.12;3.17;;;;;;;15.75;55.87;98884.99;1601990;89;25509;-63
2022/09/06 20:23:27;;;;;;;5.85;3.02;;;;;;;15.73;55.75;98885.93;1602287;89;25774;-59
2022/09/06 20:26:09;;;;;;;8.05;3.17;;;;;;;15.70;55.89;98891.33;1602260;89;26021;-63
2022/09/06 20:28:36;;;;;;;7.92;3.70;;;;;;;15.68;55.75;98889.72;1602359;89;25620;-58
2022/09/06 20:31:15;;;;;;;6.15;2.95;;;;;;;15.64;55.72;98894.89;1602089;89;27494;-58
2022/09/06 20:33:41;;;;;;;7.15;4.12;;;;;;;15.58;55.64;98891.55;1624736;88;25706;-61
2022/09/06 20:36:10;;;;;;;7.15;3.30;;;;;;;15.55;55.93;98888.87;1624836;88;25520;-59
2022/09/06 20:38:39;;;;;;;5.25;2.98;;;;;;;15.54;55.62;98886.45;1625015;88;26095;-58
2022/09/06 20:41:18;;;;;;;5.90;3.35;;;;;;;15.51;55.80;98889.33;1625170;87;25461;-59
2022/09/06 20:43:47;;;;;;;6.62;3.02;;;;;;;15.46;55.49;98884.61;1621901;87;28256;-63
2022/09/06 20:46:17;;;;;;;4.97;2.25;;;;;;;15.43;55.71;98875.84;1606415;88;25793;-62
2022/09/06 20:48:45;;;;;;;5.63;3.40;;;;;;;15.42;55.66;98885.85;1620956;88;25572;-63
2022/09/06 20:51:17;;;;;;;7.15;3.20;;;;;;;15.36;55.88;98889.41;1593777;89;26825;-63
2022/09/06 20:53:46;;;;;;;4.17;2.60;;;;;;;15.36;55.88;98889.41;1593875;90;25705;-63
2022/09/06 20:56:17;;;;;;;4.40;2.77;;;;;;;15.35;55.48;98889.75;1599399;89;27471;-58
2022/09/06 20:58:55;;;;;;;6.97;3.12;;;;;;;15.33;55.49;98885.95;1596690;89;34757;-63
2022/09/06 21:01:25;;;;;;;6.30;2.87;;;;;;;15.28;55.73;98886.97;1597249;89;25670;-62
2022/09/06 21:03:56;;;;;;;5.00;2.90;;;;;;;15.27;55.36;98888.69;1597513;89;26052;-62
2022/09/06 21:06:23;;;;;;;;;;;;;;;15.25;55.28;98882.69;1599535;89;25649;-63
2022/09/06 21:08:50;;;;;;;8.13;2.90;;;;;;;15.23;55.51;98883.62;1597302;89;27457;-58
2022/09/06 21:11:17;;;;;;;6.30;3.25;;;;;;;15.24;55.33;98890.75;1597116;89;25898;-59
2022/09/06 21:13:50;;;;;;;5.75;2.80;;;;;;;15.27;55.51;98890.06;1597124;89;25471;-59
2022/09/06 21:16:16;;;;;;;8.48;2.55;;;;;;;15.26;55.23;98889.84;1597436;89;26224;-57
2022/09/06 21:18:42;;;;;;;5.37;3.05;;;;;;;15.20;55.28;98884.30;1595959;89;26403;-60
2022/09/06 21:21:09;;;;;;;8.70;3.85;;;;;;;15.20;55.28;98884.30;1596764;89;27778;-61
2022/09/06 21:23:37;;;;;;;5.10;3.02;;;;;;;15.20;55.47;98885.09;1597091;89;25689;-58
2022/09/06 21:26:08;;;;;;;7.05;3.45;;;;;;;15.15;55.32;98870.13;1597103;89;25752;-58
2022/09/06 21:28:38;;;;;;;13.43;3.62;;;;;;;15.20;55.42;98880.95;1596703;89;26055;-57
2022/09/06 21:31:18;;;;;;;5.80;3.30;;;;;;;15.19;55.32;98882.09;1597284;89;25769;-58
2022/09/06 21:33:48;;;;;;;10.53;2.98;;;;;;;15.21;55.22;98882.58;1597334;89;27726;-58
2022/09/06 21:36:21;;;;;;;6.55;2.70;;;;;;;15.16;55.28;98880.02;1597500;89;25716;-57
2022/09/06 21:38:51;;;;;;;6.60;2.85;;;;;;;15.13;55.33;98874.61;1597355;88;25693;-62
2022/09/06 21:41:18;;;;;;;4.90;2.87;;;;;;;15.09;55.21;98866.78;1597598;89;26073;-58
2022/09/06 21:43:46;;;;;;;4.78;2.77;;;;;;;15.00;55.70;98873.73;1593281;89;25682;-59
2022/09/06 21:46:16;;;;;;;4.25;2.52;;;;;;;15.00;55.70;98873.73;1590401;90;27503;-59
2022/09/06 21:48:49;;;;;;;5.15;2.83;;;;;;;14.95;55.62;98860.16;1590426;89;25543;-57
2022/09/06 21:51:19;;;;;;;3.30;2.08;;;;;;;14.95;55.47;98867.63;1590538;89;25692;-65
2022/09/06 21:53:47;;;;;;;;;;;;;;;14.84;55.75;98850.11;1592437;90;26219;-57
2022/09/06 21:56:14;;;;;;;5.12;2.33;;;;;;;14.83;55.74;98860.92;1590450;90;25493;-62
2022/09/06 21:58:42;;;;;;;5.12;2.92;;;;;;;14.77;55.97;98861.65;1590214;90;28468;-60
2022/09/06 22:01:09;;;;;;;8.38;3.27;;;;;;;14.72;56.00;98861.05;1590199;90;25600;-60
2022/09/06 22:03:40;;;;;;;5.42;3.20;;;;;;;14.65;56.06;98856.09;1590498;89;25622;-59
2022/09/06 22:06:11;;;;;;;;;;;;;;;14.66;55.95;98862.65;1592635;90;25988;-59
2022/09/06 22:08:38;;;;;;;6.05;2.90;;;;;;;14.45;56.66;98851.58;1590364;89;25622;-58
2022/09/06 22:11:18;;;;;;;6.17;3.00;;;;;;;14.45;56.66;98851.58;1590511;90;27444;-58
2022/09/06 22:13:45;;;;;;;;;;;;;;;14.46;56.62;98856.53;1592201;90;25668;-59
2022/09/06 22:16:14;;;;;;;4.03;2.33;;;;;;;14.37;56.90;98865.69;1590365;90;25508;-58
2022/09/06 22:18:40;;;;;;;6.47;2.80;;;;;;;14.37;56.90;98865.69;1590446;90;25955;-57
2022/09/06 22:21:12;;;;;;;5.20;2.58;;;;;;;14.33;56.95;98856.45;1590512;90;25436;-57
2022/09/06 22:23:39;;;;;;;5.65;2.65;;;;;;;14.31;56.90;98853.24;1590183;90;28440;-63
2022/09/06 22:26:09;;;;;;;3.98;2.55;;;;;;;14.29;57.06;98849.44;1590332;89;25523;-61
2022/09/06 22:28:36;;;;;;;5.08;2.08;;;;;;;14.29;57.06;98849.44;1590671;90;34893;-59
2022/09/06 22:31:03;;;;;;;5.47;2.70;;;;;;;14.27;56.71;98851.71;1590490;89;26133;-63
2022/09/06 22:33:29;;;;;;;6.55;3.37;;;;;;;14.25;57.17;98842.17;1590396;90;25730;-57
2022/09/06 22:35:58;;;;;;;8.20;3.98;;;;;;;14.25;57.17;98842.17;1590066;90;27498;-61
2022/09/06 22:38:24;;;;;;;5.95;3.02;;;;;;;14.24;56.84;98841.36;1589981;90;25935;-62
2022/09/06 22:40:50;;;;;;;7.55;2.72;;;;;;;14.24;56.78;98844.11;1590309;90;25718;-63
2022/09/06 22:43:16;;;;;;;5.30;2.58;;;;;;;14.25;56.69;98842.95;1592996;89;26060;-63
2022/09/06 22:45:44;;;;;;;6.58;2.10;;;;;;;14.20;56.69;98845.11;1602409;89;25457;-58
2022/09/06 22:48:11;;;;;;;7.25;2.17;;;;;;;14.13;56.68;98840.14;1602124;89;28746;-63
2022/09/06 22:50:41;;;;;;;5.10;2.12;;;;;;;14.09;56.78;98840.55;1601929;89;25630;-63
2022/09/06 22:53:07;;;;;;;3.22;2.12;;;;;;;14.03;56.91;98835.80;1601259;89;25477;-58
2022/09/06 22:55:35;;;;;;;4.10;2.30;;;;;;;13.98;57.00;98836.80;1602217;89;26001;-58
2022/09/06 22:58:02;;;;;;;4.78;2.87;;;;;;;13.98;56.92;98842.87;1602292;88;25531;-58
2022/09/06 23:00:29;;;;;;;5.85;2.37;;;;;;;13.97;56.93;98841.27;1602243;89;27554;-57
2022/09/06 23:02:56;;;;;;;3.55;2.22;;;;;;;13.95;57.34;98838.84;1602087;89;25785;-63
2022/09/06 23:05:23;;;;;;;4.03;2.50;;;;;;;13.94;56.87;98835.86;1602261;89;25670;-62
2022/09/06 23:07:50;;;;;;;2.95;2.10;;;;;;;13.90;56.91;98846.72;1602231;89;26068;-60
2022/09/06 23:10:17;;;;;;;3.62;2.27;;;;;;;13.87;56.89;98843.81;1602302;89;25686;-59
2022/09/06 23:12:44;;;;;;;3.92;1.98;;;;;;;13.85;56.97;98845.55;1602026;89;27302;-60
2022/09/06 23:15:10;;;;;;;4.45;2.15;;;;;;;13.85;57.06;98850.23;1602129;89;25767;-61
2022/09/06 23:17:37;;;;;;;4.47;1.75;;;;;;;13.85;57.06;98850.23;1602090;89;25685;-63
2022/09/06 23:20:05;;;;;;;8.53;2.42;;;;;;;13.84;56.94;98848.05;1602332;89;26050;-59
2022/09/06 23:22:31;;;;;;;2.77;2.30;;;;;;;13.86;56.84;98848.53;1602058;89;25536;-64
2022/09/06 23:24:57;;;;;;;3.37;2.00;;;;;;;13.82;57.02;98847.59;1602339;89;27329;-63
2022/09/06 23:27:23;;;;;;;4.75;1.87;;;;;;;13.78;56.99;98839.73;1601945;88;25459;-63
2022/09/06 23:29:50;;;;;;;5.85;1.70;;;;;;;13.76;57.01;98841.44;1602083;89;25649;-63
2022/09/06 23:32:17;;;;;;;6.97;2.30;;;;;;;13.77;56.81;98833.43;1602104;89;26512;-64
2022/09/06 23:34:44;;;;;;;4.17;2.17;;;;;;;13.76;56.78;98835.92;1602165;88;25459;-64
2022/09/06 23:37:10;;;;;;;3.17;1.87;;;;;;;13.75;56.74;98820.55;1601988;89;27532;-61
2022/09/06 23:39:36;;;;;;;2.95;1.87;;;;;;;13.72;56.75;98817.08;1601892;88;27088;-60
2022/09/06 23:42:02;;;;;;;6.08;2.60;;;;;;;13.72;56.72;98819.83;1602341;89;25651;-62
2022/09/06 23:44:28;;;;;;;5.25;2.35;;;;;;;13.71;56.57;98819.60;1601873;89;26097;-60
2022/09/06 23:46:54;;;;;;;5.30;2.65;;;;;;;13.71;56.60;98820.98;1602284;89;25724;-58
2022/09/06 23:49:20;;;;;;;5.58;3.10;;;;;;;13.72;56.51;98819.02;1602300;88;28360;-61
2022/09/06 23:51:46;;;;;;;5.20;2.77;;;;;;;13.65;56.69;98812.66;1602190;88;25450;-60
2022/09/06 23:54:12;;;;;;;4.05;2.65;;;;;;;13.65;56.51;98818.17;1602336;88;25478;-59
2022/09/06 23:56:39;;;;;;;4.55;2.10;;;;;;;13.57;56.37;98811.56;1602295;88;25993;-59
2022/09/06 23:59:05;;;;;;;5.20;2.70;;;;;;;13.54;56.40;98808.09;1602253;88;25523;-63
